KRWL

Rawlins Municipal / Harvey Field Airport

Rawlins, Wyoming, USA
METAR KRWL 212153Z AUTO 23016G24KT 10SM FEW120 28/M01 A3015 RMK AO2 PK WND 23028/2134 RAB41E46 SLP120 P0000 T02831006
Observed Flight Rules
Jun-21 @ 21:53 UTC (14 minutes ago) Visual Flight Rules
Wind Visibility Clouds
230° at 16 knots
 Gusting to 24 knots
10 miles
  • Few at 12,000' AGL
Temperatures Readings Precipitation
Current 28°C / 82°F
Dewpoint -1°C / 30°F
Humidity 15%
Altimeter 30.15" Hg
Pressure 1012 hPa
Elevation 2077
Current Rain 0.005
METAR KRWL 212153Z AUTO 23016G24KT 10SM FEW120 28/M01 A3015 RMK AO2 PK WND 23028/2134 RAB41E46 SLP120 P0000 T02831006
Observed Flight Rules
Jun-21 @ 21:53 UTC
(14 minutes ago)
VFR
Wind Visibility
230° at 16 knots
 Gusting to 24 knots
10 miles
Clouds
  • Few at 12,000' AGL
Temperature Dewpoint
28°C / 82°F -1°C / 30°F
Humidity Altimeter Pressure
15% 30.15" Hg 1012 hPa
Current Rain
0.005